Time;durP1;ratioP1;P1;durP2;ratioP2;P2;SDS_P1;SDS_P2;PMS_P1;PMS_P2;Temp;Humidity;BMP_temperature;BMP_pressure;BME280_temperature;BME280_humidity;BME280_pressure;Samples;Min_cycle;Max_cycle;Signal;HPM_P1;HPM_P2
2021/12/08 00:00:30;;;;;;;26.80;16.20;;;;;;;-2.84;77.03;99722.71;229255;1193;140959;-68
2021/12/08 00:05:40;;;;;;;24.20;14.10;;;;;;;-2.90;76.87;99718.16;230240;1193;141196;-70
2021/12/08 00:16:02;;;;;;;23.20;11.90;;;;;;;-2.96;76.78;99720.05;230413;1193;140453;-70
2021/12/08 00:21:10;;;;;;;24.80;14.20;;;;;;;-2.89;76.92;99720.52;230208;1193;139970;-70
2021/12/08 00:26:14;;;;;;;20.00;10.90;;;;;;;-2.82;76.91;99721.46;230187;1193;139154;-73
2021/12/08 00:31:17;;;;;;;18.20;11.90;;;;;;;-2.84;76.60;99722.98;230228;1193;140539;-71
2021/12/08 00:36:28;;;;;;;16.60;10.10;;;;;;;-2.95;76.22;99726.17;228535;1183;139065;-68
2021/12/08 00:41:32;;;;;;;17.70;9.90;;;;;;;-3.01;76.12;99727.43;230061;1193;140164;-67
2021/12/08 00:46:36;;;;;;;19.20;10.30;;;;;;;-3.01;76.42;99728.86;229803;1193;139855;-68
2021/12/08 00:51:43;;;;;;;20.60;11.80;;;;;;;-2.99;76.56;99733.35;228068;1193;140532;-69
2021/12/08 00:56:47;;;;;;;21.80;12.30;;;;;;;-3.02;76.49;99720.06;228699;1193;140061;-69
2021/12/08 01:01:50;;;;;;;19.90;11.10;;;;;;;-3.07;76.61;99707.08;228144;1193;141371;-68
2021/12/08 01:06:54;;;;;;;14.00;9.50;;;;;;;-3.09;76.89;99693.45;229645;1193;139296;-70
2021/12/08 01:12:01;;;;;;;21.80;12.40;;;;;;;-3.12;76.75;99691.98;229551;1193;139745;-68
2021/12/08 01:17:05;;;;;;;15.60;9.40;;;;;;;-3.10;76.48;99694.55;228280;1193;140323;-67
2021/12/08 01:22:08;;;;;;;22.40;12.10;;;;;;;-3.13;76.50;99691.91;229307;1193;141047;-69
2021/12/08 01:27:10;;;;;;;21.90;12.70;;;;;;;-3.17;76.53;99681.73;227881;1193;140293;-69
2021/12/08 01:32:14;;;;;;;19.60;10.90;;;;;;;-3.22;76.75;99676.82;228879;1193;140166;-68
2021/12/08 01:37:18;;;;;;;19.10;12.20;;;;;;;-3.24;76.80;99676.66;228218;1193;142082;-69
2021/12/08 01:42:35;;;;;;;18.00;10.80;;;;;;;-3.21;76.70;99679.14;228957;1193;139704;-70
2021/12/08 01:47:39;;;;;;;22.50;12.20;;;;;;;-3.14;76.86;99674.65;229144;1193;139845;-67
2021/12/08 01:52:42;;;;;;;23.50;13.50;;;;;;;-3.10;76.96;99667.65;229174;1193;140009;-67
2021/12/08 01:57:45;;;;;;;14.00;9.30;;;;;;;-3.14;76.83;99666.98;228447;1193;142014;-66
2021/12/08 02:02:48;;;;;;;16.90;11.70;;;;;;;-3.24;76.43;99674.25;228226;1193;140108;-68
2021/12/08 02:07:51;;;;;;;19.50;12.60;;;;;;;-3.30;76.59;99663.83;229311;1193;140605;-68
2021/12/08 02:12:54;;;;;;;19.50;11.20;;;;;;;-3.36;76.36;99663.64;228039;1193;142071;-69
2021/12/08 02:17:57;;;;;;;17.90;10.40;;;;;;;-3.44;76.61;99653.54;228751;1193;142713;-70
2021/12/08 02:23:01;;;;;;;14.80;9.00;;;;;;;-3.53;76.61;99654.27;230667;1186;139891;-69
2021/12/08 02:28:05;;;;;;;14.10;9.50;;;;;;;-3.58;76.54;99656.52;230490;1193;139722;-68
2021/12/08 02:49:17;;;;;;;11.80;8.00;;;;;;;-3.66;76.36;99650.98;230190;1193;139349;-70
2021/12/08 02:54:21;;;;;;;17.00;7.80;;;;;;;-3.64;76.16;99647.83;229412;1193;139746;-68
2021/12/08 02:59:24;;;;;;;10.80;7.80;;;;;;;-3.59;76.57;99649.09;229417;1193;138928;-67
2021/12/08 03:04:27;;;;;;;12.50;7.30;;;;;;;-3.58;76.55;99646.56;228858;1193;141517;-68
2021/12/08 03:09:30;;;;;;;16.20;8.60;;;;;;;-3.58;76.67;99643.30;227946;1193;140207;-68
2021/12/08 03:14:33;;;;;;;15.60;10.50;;;;;;;-3.61;76.68;99632.46;228988;1194;139713;-70
2021/12/08 03:19:36;;;;;;;17.50;9.90;;;;;;;-3.65;76.63;99613.78;228317;1193;140039;-67
2021/12/08 03:24:43;;;;;;;12.20;7.70;;;;;;;-3.68;76.61;99597.07;228539;1193;139897;-68
2021/12/08 03:29:59;;;;;;;12.10;7.60;;;;;;;-3.77;76.67;99585.36;227635;1195;139992;-70
2021/12/08 03:35:05;;;;;;;20.40;11.10;;;;;;;-3.85;76.76;99584.09;228038;1193;234787;-67
2021/12/08 03:40:16;;;;;;;20.00;13.10;;;;;;;-3.87;76.94;99579.71;228183;1193;140970;-70
2021/12/08 03:45:23;;;;;;;24.80;12.90;;;;;;;-3.87;77.08;99585.96;228196;1193;139515;-67
2021/12/08 03:50:27;;;;;;;19.20;9.50;;;;;;;-3.85;77.15;99590.44;229079;1193;139800;-66
2021/12/08 03:55:30;;;;;;;23.00;12.90;;;;;;;-3.84;77.27;99595.92;229019;1193;139250;-67
2021/12/08 04:00:34;;;;;;;18.40;12.10;;;;;;;-3.77;77.23;99592.65;229265;1193;140599;-67
2021/12/08 04:05:59;;;;;;;19.00;11.20;;;;;;;-3.79;77.01;99581.89;228518;1193;140433;-68
2021/12/08 04:11:05;;;;;;;23.20;11.90;;;;;;;-3.85;77.19;99559.88;229299;1193;140804;-71
2021/12/08 04:16:09;;;;;;;25.50;12.70;;;;;;;-3.86;76.80;99551.33;229104;1193;139578;-71
2021/12/08 04:21:15;;;;;;;18.90;9.30;;;;;;;-3.84;77.33;99556.14;229736;1193;139425;-70
2021/12/08 04:26:36;;;;;;;14.50;7.30;;;;;;;-3.80;77.40;99563.96;229599;1193;141899;-69
2021/12/08 04:31:44;;;;;;;22.60;13.30;;;;;;;-3.79;77.31;99555.67;229844;1193;139591;-67
2021/12/08 04:36:51;;;;;;;23.20;13.00;;;;;;;-3.77;77.16;99544.42;230180;1193;141127;-68
2021/12/08 04:42:02;;;;;;;22.00;12.50;;;;;;;-3.76;76.93;99543.30;230454;1193;140043;-69
2021/12/08 05:03:49;;;;;;;14.90;8.30;;;;;;;-4.00;77.03;99559.16;229117;1193;139335;-73
2021/12/08 05:08:55;;;;;;;20.80;11.50;;;;;;;-4.09;76.92;99565.54;228917;1188;140081;-73
2021/12/08 05:14:10;;;;;;;17.90;10.80;;;;;;;-4.09;77.14;99563.98;229163;1193;140339;-74
2021/12/08 05:19:17;;;;;;;16.50;10.00;;;;;;;-4.01;77.49;99566.20;228235;1193;141406;-72
2021/12/08 05:24:31;;;;;;;17.40;10.70;;;;;;;-4.04;77.19;99560.71;228121;1193;150038;-71
2021/12/08 05:29:40;;;;;;;21.70;12.00;;;;;;;-4.11;76.96;99556.73;228603;1193;140536;-69
2021/12/08 05:34:43;;;;;;;26.50;13.90;;;;;;;-4.13;77.21;99562.95;227671;1193;143649;-68
2021/12/08 05:39:47;;;;;;;26.00;14.60;;;;;;;-4.11;77.54;99549.05;228998;1193;141700;-74
2021/12/08 05:44:57;;;;;;;22.10;12.90;;;;;;;-4.11;77.48;99552.17;228600;1193;139837;-69
2021/12/08 05:50:01;;;;;;;27.80;15.90;;;;;;;-4.11;77.69;99547.88;228170;1193;140221;-69
2021/12/08 05:55:07;;;;;;;26.50;14.00;;;;;;;-4.16;77.03;99550.36;228553;1193;140282;-68
2021/12/08 06:00:19;;;;;;;30.70;18.10;;;;;;;-4.15;77.37;99551.21;228524;1193;141218;-66
2021/12/08 06:05:27;;;;;;;28.20;15.80;;;;;;;-4.12;77.59;99554.21;229009;1193;140440;-67
2021/12/08 06:10:33;;;;;;;28.80;15.10;;;;;;;-4.08;77.74;99543.88;228085;1193;142422;-67
2021/12/08 06:15:38;;;;;;;32.60;18.10;;;;;;;-4.08;77.92;99543.23;228822;1193;140993;-67
2021/12/08 06:20:42;;;;;;;32.00;15.30;;;;;;;-4.06;77.96;99541.66;230239;1193;140871;-67
2021/12/08 06:25:45;;;;;;;26.70;15.10;;;;;;;-3.99;77.78;99537.32;229777;1193;140557;-69
2021/12/08 06:30:49;;;;;;;33.10;17.90;;;;;;;-4.00;77.41;99541.95;230303;1193;141619;-67
2021/12/08 06:36:00;;;;;;;33.50;16.10;;;;;;;-4.04;77.71;99531.42;230566;1193;140599;-69
2021/12/08 06:41:33;;;;;;;28.40;14.30;;;;;;;-4.08;77.58;99523.44;230155;1193;140449;-70
2021/12/08 06:46:36;;;;;;;33.20;17.70;;;;;;;-4.13;77.12;99522.67;230248;1193;142297;-71
2021/12/08 06:52:01;;;;;;;24.30;12.10;;;;;;;-4.16;77.65;99524.02;230457;1193;141034;-70
2021/12/08 06:57:11;;;;;;;37.10;18.10;;;;;;;-4.13;77.77;99528.65;229062;1193;141075;-70
2021/12/08 07:02:31;;;;;;;29.40;13.40;;;;;;;-4.07;77.69;99527.66;228975;1193;139848;-67
2021/12/08 07:07:35;;;;;;;33.70;16.90;;;;;;;-4.06;77.64;99530.17;228272;1193;139512;-66
2021/12/08 07:12:45;;;;;;;33.60;17.70;;;;;;;-4.06;77.83;99528.12;229616;1193;139958;-67
2021/12/08 07:17:51;;;;;;;32.40;15.30;;;;;;;-4.03;78.11;99531.20;228434;1193;139406;-66
2021/12/08 07:22:57;;;;;;;39.00;18.20;;;;;;;-4.00;78.03;99535.73;229511;1193;139384;-67
2021/12/08 07:28:02;;;;;;;71.30;31.70;;;;;;;-3.94;78.15;99542.95;229349;1193;140579;-67
2021/12/08 07:33:05;;;;;;;45.40;23.40;;;;;;;-3.85;77.97;99537.18;228348;1193;141027;-68
2021/12/08 07:38:13;;;;;;;29.30;15.40;;;;;;;-3.81;78.13;99531.40;228834;1193;141025;-68
2021/12/08 07:43:20;;;;;;;31.10;16.90;;;;;;;-3.85;78.18;99534.94;228786;1193;140164;-68
2021/12/08 07:48:29;;;;;;;35.20;16.90;;;;;;;-3.87;77.85;99537.73;228391;1193;139988;-67
2021/12/08 07:53:32;;;;;;;42.80;18.40;;;;;;;-3.90;78.06;99546.02;228871;1193;140214;-67
2021/12/08 07:58:39;;;;;;;47.90;22.60;;;;;;;-3.91;78.22;99546.95;228839;1193;140029;-66
2021/12/08 08:03:44;;;;;;;42.40;21.70;;;;;;;-3.89;77.83;99546.48;229094;1193;140792;-66
2021/12/08 08:08:46;;;;;;;26.70;11.30;;;;;;;-3.88;77.83;99548.41;229372;1193;139671;-66
2021/12/08 08:13:50;;;;;;;31.10;13.70;;;;;;;-3.89;78.13;99551.43;227686;1193;140096;-66
2021/12/08 08:19:00;;;;;;;57.80;21.30;;;;;;;-3.86;77.96;99543.55;228806;1193;141672;-66
2021/12/08 08:24:06;;;;;;;48.10;18.40;;;;;;;-3.79;77.98;99539.04;228306;1193;141123;-67
2021/12/08 08:29:10;;;;;;;53.70;22.50;;;;;;;-3.73;77.98;99534.48;228176;1193;142546;-67
2021/12/08 08:34:17;;;;;;;34.70;15.10;;;;;;;-3.66;78.03;99537.45;229479;1193;140876;-68
2021/12/08 08:39:26;;;;;;;56.40;23.80;;;;;;;-3.58;77.97;99540.79;230428;1192;140154;-68
2021/12/08 08:44:32;;;;;;;47.20;20.30;;;;;;;-3.44;77.72;99543.60;229508;1193;140831;-67
2021/12/08 08:49:36;;;;;;;49.50;21.60;;;;;;;-3.35;77.58;99540.33;228564;1193;142253;-67
2021/12/08 08:54:43;;;;;;;36.70;16.60;;;;;;;-3.28;77.61;99540.33;228702;1193;140001;-68
2021/12/08 08:59:58;;;;;;;39.60;19.20;;;;;;;-3.26;77.53;99543.02;230097;1193;139548;-69
2021/12/08 09:05:14;;;;;;;45.00;18.60;;;;;;;-3.21;77.23;99535.98;229899;1193;140184;-69
2021/12/08 09:10:47;;;;;;;29.70;13.30;;;;;;;-3.13;77.30;99531.98;229174;1193;139676;-66
2021/12/08 09:15:59;;;;;;;39.00;18.60;;;;;;;-3.12;76.96;99532.90;229066;1193;139126;-66
2021/12/08 09:21:16;;;;;;;37.50;17.60;;;;;;;-3.11;76.87;99531.32;228195;1193;139158;-67
2021/12/08 09:26:21;;;;;;;41.60;18.10;;;;;;;-3.07;76.84;99536.94;228807;1193;139762;-70
2021/12/08 09:31:29;;;;;;;28.70;13.30;;;;;;;-3.10;76.88;99532.92;229013;1193;141688;-67
2021/12/08 09:36:45;;;;;;;34.70;17.10;;;;;;;-3.10;76.71;99529.82;228568;1193;139479;-69
2021/12/08 09:42:07;;;;;;;29.40;14.00;;;;;;;-3.02;76.56;99523.49;228938;1193;140582;-67
2021/12/08 09:47:11;;;;;;;27.10;12.60;;;;;;;-3.06;76.42;99520.88;227879;1193;139868;-65
2021/12/08 09:52:17;;;;;;;40.50;19.60;;;;;;;-3.03;76.87;99523.70;228288;1193;139878;-67
2021/12/08 09:57:25;;;;;;;36.40;17.00;;;;;;;-2.92;76.51;99514.80;228107;1193;139575;-66
2021/12/08 10:02:33;;;;;;;25.20;13.90;;;;;;;-2.98;76.28;99509.45;228987;1193;139835;-66
2021/12/08 10:07:37;;;;;;;38.00;18.30;;;;;;;-3.04;76.34;99504.35;228513;1193;139758;-66
2021/12/08 10:12:41;;;;;;;20.60;11.30;;;;;;;-3.02;76.26;99488.33;228394;1193;139870;-65
2021/12/08 10:17:45;;;;;;;31.90;16.10;;;;;;;-3.02;76.25;99487.51;228896;1193;139705;-65
2021/12/08 10:23:09;;;;;;;31.90;16.70;;;;;;;-2.99;76.06;99485.25;228714;1193;140354;-65
2021/12/08 10:28:31;;;;;;;31.00;15.90;;;;;;;-2.84;76.52;99481.96;230347;1193;140156;-66
2021/12/08 10:39:22;;;;;;;50.60;20.80;;;;;;;-2.74;76.11;99468.92;229947;1187;139267;-66
2021/12/08 10:44:40;;;;;;;30.80;16.70;;;;;;;-2.70;75.67;99464.05;229452;1193;140357;-68
2021/12/08 10:54:51;;;;;;;32.40;14.80;;;;;;;-2.72;75.36;99456.73;228207;1193;139412;-67
2021/12/08 11:00:16;;;;;;;29.60;12.70;;;;;;;-2.73;75.58;99443.39;229698;1193;139289;-67
2021/12/08 11:05:29;;;;;;;35.60;15.40;;;;;;;-2.72;75.56;99438.14;230045;1193;140011;-67
2021/12/08 11:10:55;;;;;;;26.30;13.00;;;;;;;-2.65;75.63;99433.12;228569;1193;142843;-68
2021/12/08 11:16:15;;;;;;;28.70;13.50;;;;;;;-2.62;75.42;99421.74;228471;1193;140976;-64
2021/12/08 11:21:31;;;;;;;40.60;21.00;;;;;;;-2.65;75.41;99415.92;228171;1193;141897;-65
2021/12/08 11:26:48;;;;;;;43.10;18.30;;;;;;;-2.59;75.31;99417.72;228237;1193;142315;-66
2021/12/08 11:31:55;;;;;;;28.90;13.10;;;;;;;-2.47;75.51;99415.36;228819;1193;140545;-65
2021/12/08 11:37:07;;;;;;;44.70;21.10;;;;;;;-2.56;74.94;99418.45;228168;1193;139238;-65
2021/12/08 11:42:17;;;;;;;31.30;15.00;;;;;;;-2.66;75.03;99416.65;228769;1193;145133;-69
2021/12/08 11:47:34;;;;;;;42.30;18.80;;;;;;;-2.75;74.86;99408.60;228561;1192;141890;-67
2021/12/08 11:52:37;;;;;;;36.20;15.20;;;;;;;-2.85;74.59;99404.23;227959;1193;140520;-68
2021/12/08 11:57:46;;;;;;;31.00;18.40;;;;;;;-2.89;74.42;99400.10;228992;1193;140061;-67
2021/12/08 12:03:02;;;;;;;29.60;15.90;;;;;;;-2.95;74.38;99397.39;228221;1193;141831;-68
2021/12/08 12:08:10;;;;;;;36.60;15.30;;;;;;;-3.02;74.05;99380.55;229192;1193;140445;-68
2021/12/08 12:13:13;;;;;;;37.70;17.10;;;;;;;-3.21;74.03;99375.58;228019;1193;152626;-67
2021/12/08 12:18:19;;;;;;;35.90;19.40;;;;;;;-3.36;74.00;99373.58;229360;1193;141409;-66
2021/12/08 12:24:00;;;;;;;34.10;14.50;;;;;;;-3.38;74.17;99367.94;229813;1193;141425;-67
2021/12/08 12:29:02;;;;;;;40.20;15.80;;;;;;;-3.33;74.25;99363.25;229826;1193;140751;-69
2021/12/08 12:34:23;;;;;;;33.10;14.90;;;;;;;-3.23;74.48;99368.33;228187;1193;141269;-67
2021/12/08 12:39:28;;;;;;;34.30;16.70;;;;;;;-3.05;74.56;99372.52;229805;1193;140334;-68
2021/12/08 12:44:34;;;;;;;38.00;19.20;;;;;;;-2.92;74.61;99377.07;228819;1193;141633;-65
2021/12/08 12:49:42;;;;;;;37.80;15.30;;;;;;;-2.83;74.58;99377.21;229676;1193;140746;-69
2021/12/08 12:54:46;;;;;;;28.90;16.30;;;;;;;-2.85;74.43;99373.45;229570;1193;141300;-68
2021/12/08 12:59:52;;;;;;;38.30;16.10;;;;;;;-2.94;74.45;99374.20;230262;1193;140170;-69
2021/12/08 13:04:59;;;;;;;32.10;17.90;;;;;;;-2.99;74.49;99371.40;229604;1193;140482;-68
2021/12/08 13:10:14;;;;;;;43.80;17.80;;;;;;;-3.04;74.62;99370.50;229177;1193;139908;-70
2021/12/08 13:15:25;;;;;;;38.30;18.40;;;;;;;-3.01;74.74;99379.63;228451;1193;142010;-68
2021/12/08 13:20:30;;;;;;;28.40;13.20;;;;;;;-2.98;74.86;99380.10;227916;1193;140338;-70
2021/12/08 13:25:59;;;;;;;27.60;12.20;;;;;;;-3.07;74.89;99388.90;227651;1193;140401;-66
2021/12/08 13:31:26;;;;;;;29.80;13.80;;;;;;;-3.20;74.97;99389.04;228135;1193;142254;-69
2021/12/08 13:36:42;;;;;;;34.80;15.80;;;;;;;-3.28;75.26;99402.38;227756;1193;164003;-69
2021/12/08 13:42:10;;;;;;;28.70;13.50;;;;;;;-3.30;75.77;99402.39;228462;1193;140756;-68
2021/12/08 13:47:28;;;;;;;30.60;14.30;;;;;;;-3.40;75.56;99408.05;227927;1193;144840;-69
2021/12/08 13:52:34;;;;;;;32.10;12.40;;;;;;;-3.47;75.94;99403.00;227768;1193;139887;-67
2021/12/08 13:57:43;;;;;;;27.30;12.60;;;;;;;-3.50;76.04;99397.77;229052;1193;140275;-67
2021/12/08 14:02:53;;;;;;;46.80;17.50;;;;;;;-3.47;76.04;99396.45;228275;1193;139445;-68
2021/12/08 14:08:02;;;;;;;30.80;16.20;;;;;;;-3.44;76.18;99400.24;229177;1193;139222;-68
2021/12/08 14:13:28;;;;;;;33.40;14.90;;;;;;;-3.41;76.52;99399.33;228049;1193;140168;-68
2021/12/08 14:18:58;;;;;;;45.30;21.10;;;;;;;-3.35;76.66;99392.42;229233;1193;139882;-70
2021/12/08 14:24:17;;;;;;;29.50;13.70;;;;;;;-3.31;76.55;99400.23;229541;1193;140141;-66
2021/12/08 14:29:21;;;;;;;39.10;17.60;;;;;;;-3.30;76.45;99400.12;229745;1193;139959;-68
2021/12/08 14:34:34;;;;;;;41.10;19.90;;;;;;;-3.31;76.80;99401.05;230120;1193;138958;-69
2021/12/08 14:39:48;;;;;;;42.80;17.40;;;;;;;-3.32;76.71;99402.55;230256;1193;141129;-70
2021/12/08 14:45:02;;;;;;;37.90;18.80;;;;;;;-3.30;76.75;99393.27;230149;1193;140409;-75
2021/12/08 14:50:09;;;;;;;51.00;20.60;;;;;;;-3.20;76.70;99389.55;230340;1186;141587;-73
2021/12/08 14:55:14;;;;;;;44.80;20.00;;;;;;;-3.17;76.78;99387.30;229982;1193;140627;-70
2021/12/08 15:00:32;;;;;;;41.50;19.80;;;;;;;-3.14;77.00;99385.79;230179;1193;139774;-70
2021/12/08 15:05:47;;;;;;;37.50;17.80;;;;;;;-3.16;76.88;99377.27;229293;1193;139211;-70
2021/12/08 15:10:53;;;;;;;37.10;17.00;;;;;;;-3.16;77.07;99379.58;229064;1193;140710;-70
2021/12/08 15:15:58;;;;;;;41.10;17.00;;;;;;;-3.11;76.74;99377.63;229611;1193;139770;-73
2021/12/08 15:21:11;;;;;;;32.00;16.60;;;;;;;-3.09;76.90;99370.33;228799;1193;140540;-69
2021/12/08 15:26:24;;;;;;;31.20;15.10;;;;;;;-3.11;77.02;99372.21;229240;1193;140040;-69
2021/12/08 15:31:33;;;;;;;39.20;18.10;;;;;;;-3.15;77.14;99375.58;228438;1193;139066;-68
2021/12/08 15:36:37;;;;;;;31.00;14.10;;;;;;;-3.16;77.10;99371.05;227807;1193;139911;-67
2021/12/08 15:41:46;;;;;;;34.90;16.10;;;;;;;-3.18;77.29;99372.44;229314;1193;140238;-69
2021/12/08 15:47:00;;;;;;;26.40;13.60;;;;;;;-3.18;77.21;99368.30;228186;1193;141114;-67
2021/12/08 15:52:08;;;;;;;31.20;14.10;;;;;;;-3.26;77.26;99370.00;228944;1193;140929;-65
2021/12/08 15:57:20;;;;;;;50.00;17.80;;;;;;;-3.33;77.28;99372.24;228727;1193;140408;-70
2021/12/08 16:02:28;;;;;;;26.40;12.10;;;;;;;-3.34;77.27;99368.00;228853;1193;140631;-72
2021/12/08 16:07:34;;;;;;;32.30;16.70;;;;;;;-3.46;77.08;99369.77;229059;1193;140011;-67
2021/12/08 16:12:39;;;;;;;26.20;12.20;;;;;;;-3.52;77.50;99366.48;227869;1193;140072;-66
2021/12/08 16:17:42;;;;;;;34.30;14.40;;;;;;;-3.53;77.49;99365.95;229041;1193;140834;-71
2021/12/08 16:22:45;;;;;;;40.10;18.60;;;;;;;-3.57;77.48;99366.21;228835;1193;139224;-69
2021/12/08 16:27:52;;;;;;;41.70;19.20;;;;;;;-3.61;77.71;99355.77;228960;1193;140625;-71
2021/12/08 16:33:03;;;;;;;20.80;9.80;;;;;;;-3.60;77.67;99355.73;227641;1193;139601;-70
2021/12/08 16:38:09;;;;;;;27.80;12.90;;;;;;;-3.61;77.71;99345.18;227884;1193;139937;-70
2021/12/08 16:43:17;;;;;;;29.30;14.50;;;;;;;-3.51;77.83;99331.98;230054;1193;139416;-72
2021/12/08 16:48:24;;;;;;;29.20;15.70;;;;;;;-3.49;77.79;99331.13;230366;1193;140515;-72
2021/12/08 16:53:50;;;;;;;31.30;12.60;;;;;;;-3.50;77.66;99320.08;230293;1193;143459;-72
2021/12/08 16:58:53;;;;;;;31.20;15.20;;;;;;;-3.41;77.71;99318.11;229806;1193;150723;-72
2021/12/08 17:04:17;;;;;;;31.00;15.50;;;;;;;-3.42;77.69;99318.93;230378;1193;141508;-75
2021/12/08 17:09:20;;;;;;;30.90;16.80;;;;;;;-3.41;77.60;99323.55;230355;1193;139511;-72
2021/12/08 17:14:23;;;;;;;24.10;13.80;;;;;;;-3.34;77.51;99319.36;230083;1193;140530;-71
2021/12/08 17:19:26;;;;;;;35.20;15.80;;;;;;;-3.30;77.54;99314.42;229833;1193;139542;-69
2021/12/08 17:24:32;;;;;;;31.60;16.40;;;;;;;-3.26;77.72;99309.31;229193;1194;139105;-69
2021/12/08 17:29:36;;;;;;;28.20;16.10;;;;;;;-3.26;77.67;99309.66;228874;1193;223695;-68
2021/12/08 17:34:39;;;;;;;36.40;15.10;;;;;;;-3.26;77.57;99306.60;229360;1193;139580;-70
2021/12/08 17:39:42;;;;;;;33.40;16.00;;;;;;;-3.27;77.46;99301.61;227911;1193;140996;-67
2021/12/08 17:44:47;;;;;;;35.00;18.90;;;;;;;-3.26;77.76;99304.13;229245;1193;140275;-68
2021/12/08 17:49:53;;;;;;;39.90;20.30;;;;;;;-3.28;77.78;99308.52;228988;1193;140606;-67
2021/12/08 17:54:56;;;;;;;31.80;15.40;;;;;;;-3.29;77.63;99309.84;228954;1193;140655;-68
2021/12/08 17:59:59;;;;;;;28.10;16.00;;;;;;;-3.32;77.75;99313.08;228675;1193;140925;-65
2021/12/08 18:05:04;;;;;;;31.00;18.00;;;;;;;-3.36;77.95;99322.52;229060;1193;141849;-67
2021/12/08 18:10:12;;;;;;;30.80;14.40;;;;;;;-3.33;77.95;99328.27;229641;1193;143019;-67
2021/12/08 18:15:17;;;;;;;32.30;16.10;;;;;;;-3.30;77.83;99319.48;227974;1193;140518;-66
2021/12/08 18:20:25;;;;;;;37.10;18.50;;;;;;;-3.32;77.79;99313.80;227985;1193;141459;-65
2021/12/08 18:25:28;;;;;;;35.60;16.60;;;;;;;-3.34;78.09;99312.42;227809;1193;202664;-66
2021/12/08 18:30:31;;;;;;;40.90;19.10;;;;;;;-3.36;77.84;99318.55;229524;1193;141442;-66
2021/12/08 18:36:22;;;;;;;31.00;15.60;;;;;;;-3.35;77.73;99317.77;228492;1193;140805;-66
2021/12/08 18:40:58;;;;;;;23.90;12.20;;;;;;;-3.35;78.00;99317.73;229998;1193;139155;-66
2021/12/08 18:46:04;;;;;;;33.20;16.00;;;;;;;-3.39;77.95;99316.20;229552;1193;140437;-67
2021/12/08 18:51:11;;;;;;;33.20;13.40;;;;;;;-3.38;78.06;99319.50;228835;1193;141157;-68
2021/12/08 18:56:14;;;;;;;36.10;19.00;;;;;;;-3.33;77.82;99312.30;230136;1193;141409;-68
2021/12/08 19:01:22;;;;;;;39.30;20.20;;;;;;;-3.34;77.76;99319.73;230248;1193;139211;-69
2021/12/08 19:06:25;;;;;;;31.90;14.90;;;;;;;-3.36;77.89;99319.27;230338;1193;140308;-67
2021/12/08 19:11:31;;;;;;;40.20;19.80;;;;;;;-3.33;77.89;99320.60;228909;1193;141357;-71
2021/12/08 19:16:39;;;;;;;37.30;18.20;;;;;;;-3.25;77.96;99314.40;228582;1193;142350;-66
2021/12/08 19:21:42;;;;;;;36.10;16.20;;;;;;;-3.21;77.83;99302.88;228844;1193;141359;-68
2021/12/08 19:26:46;;;;;;;45.20;21.30;;;;;;;-3.24;77.82;99300.77;228210;1193;140784;-67
2021/12/08 19:31:49;;;;;;;46.10;21.90;;;;;;;-3.24;77.93;99299.11;229003;1193;139816;-67
2021/12/08 19:36:52;;;;;;;48.10;25.90;;;;;;;-3.20;77.85;99291.90;229166;1193;141923;-71
2021/12/08 19:41:55;;;;;;;46.10;24.10;;;;;;;-3.19;77.85;99290.92;228954;1193;141611;-68
2021/12/08 19:46:58;;;;;;;40.10;19.50;;;;;;;-3.17;78.10;99285.63;228144;1193;140123;-66
2021/12/08 19:52:01;;;;;;;62.10;28.00;;;;;;;-3.19;77.85;99275.63;229025;1193;143986;-67
2021/12/08 19:57:05;;;;;;;58.00;28.10;;;;;;;-3.22;77.94;99275.56;227968;1193;140997;-68
2021/12/08 20:02:09;;;;;;;33.80;16.60;;;;;;;-3.25;78.18;99279.30;228252;1193;232898;-67
2021/12/08 20:07:12;;;;;;;40.90;17.80;;;;;;;-3.28;78.28;99281.89;228347;1193;141617;-67
2021/12/08 20:12:19;;;;;;;49.70;23.60;;;;;;;-3.30;78.08;99284.52;228414;1193;140382;-67
2021/12/08 20:17:23;;;;;;;45.50;21.30;;;;;;;-3.26;78.11;99282.10;227564;1193;141799;-67
2021/12/08 20:22:26;;;;;;;42.70;19.20;;;;;;;-3.26;78.20;99282.55;227995;1193;140192;-67
2021/12/08 20:27:33;;;;;;;38.20;19.50;;;;;;;-3.30;78.33;99287.00;228425;1193;140070;-66
2021/12/08 20:32:37;;;;;;;39.50;18.80;;;;;;;-3.33;78.09;99289.00;229317;1193;141908;-67
2021/12/08 20:37:41;;;;;;;27.60;13.90;;;;;;;-3.32;78.08;99284.20;228812;1193;140803;-69
2021/12/08 20:42:43;;;;;;;44.20;20.00;;;;;;;-3.39;78.10;99273.00;229265;1193;140862;-70
2021/12/08 20:47:49;;;;;;;50.90;24.30;;;;;;;-3.44;78.29;99261.16;228738;1193;139527;-67
2021/12/08 20:52:53;;;;;;;47.60;23.50;;;;;;;-3.38;78.27;99253.63;228365;1193;140566;-67
2021/12/08 20:58:06;;;;;;;24.00;11.50;;;;;;;-3.34;78.28;99244.34;230285;1193;140006;-66
2021/12/08 21:03:12;;;;;;;35.20;15.80;;;;;;;-3.37;78.34;99238.33;230269;1193;140191;-67
2021/12/08 21:08:21;;;;;;;53.80;24.90;;;;;;;-3.35;78.33;99236.04;230293;1193;140019;-69
2021/12/08 21:13:25;;;;;;;45.10;22.10;;;;;;;-3.26;78.36;99241.02;229264;1193;140321;-70
2021/12/08 21:18:29;;;;;;;34.40;17.40;;;;;;;-3.24;78.34;99233.92;228592;1193;139162;-69
2021/12/08 21:23:32;;;;;;;37.40;17.00;;;;;;;-3.26;78.33;99235.48;229753;1193;140310;-68
2021/12/08 21:28:34;;;;;;;49.30;22.50;;;;;;;-3.24;78.34;99230.63;229598;1193;141811;-68
2021/12/08 21:33:41;;;;;;;48.90;20.50;;;;;;;-3.23;78.44;99223.01;227859;1193;139997;-66
2021/12/08 21:38:44;;;;;;;50.80;24.00;;;;;;;-3.27;78.48;99220.61;228595;1193;139458;-67
2021/12/08 21:43:51;;;;;;;55.80;27.60;;;;;;;-3.28;78.56;99214.95;228908;1193;139766;-67
2021/12/08 21:48:54;;;;;;;48.40;22.30;;;;;;;-3.20;78.58;99206.83;228145;1193;140584;-67
2021/12/08 21:53:57;;;;;;;46.90;22.80;;;;;;;-3.14;78.54;99207.91;228549;1193;140529;-68
2021/12/08 21:59:00;;;;;;;43.80;20.70;;;;;;;-3.15;78.55;99206.13;228954;1193;139942;-69
2021/12/08 22:04:04;;;;;;;50.00;22.90;;;;;;;-3.18;78.66;99217.75;228255;1193;143324;-70
2021/12/08 22:09:07;;;;;;;46.30;22.50;;;;;;;-3.15;78.36;99219.77;229272;1193;140098;-66
2021/12/08 22:14:11;;;;;;;35.30;16.90;;;;;;;-3.18;78.57;99216.18;228941;1193;139905;-69
2021/12/08 22:19:17;;;;;;;48.90;22.10;;;;;;;-3.23;78.60;99215.55;228615;1193;139270;-69
2021/12/08 22:24:19;;;;;;;46.60;22.20;;;;;;;-3.24;78.73;99218.06;229597;1193;140188;-69
2021/12/08 22:29:23;;;;;;;39.90;17.80;;;;;;;-3.18;78.64;99221.13;228703;1193;139778;-70
2021/12/08 22:34:29;;;;;;;38.40;17.50;;;;;;;-3.20;78.70;99214.48;229219;1193;140019;-65
2021/12/08 22:39:32;;;;;;;40.20;18.10;;;;;;;-3.17;78.93;99215.42;229232;1193;140770;-68
2021/12/08 22:44:34;;;;;;;44.80;19.10;;;;;;;-3.16;78.74;99211.85;228492;1193;140907;-66
2021/12/08 22:49:39;;;;;;;50.90;20.30;;;;;;;-3.21;78.64;99211.09;228102;1194;140418;-67
2021/12/08 22:54:43;;;;;;;33.70;17.20;;;;;;;-3.26;78.72;99206.25;229705;1193;139962;-66
2021/12/08 22:59:46;;;;;;;44.50;19.70;;;;;;;-3.28;78.76;99215.66;228551;1193;140713;-73
2021/12/08 23:04:50;;;;;;;46.50;23.90;;;;;;;-3.29;78.90;99213.92;229432;1193;139976;-67
2021/12/08 23:09:53;;;;;;;40.50;18.10;;;;;;;-3.27;79.07;99223.39;230294;1193;140304;-69
2021/12/08 23:14:57;;;;;;;55.10;21.70;;;;;;;-3.22;79.21;99218.42;230080;1193;140346;-68
2021/12/08 23:20:03;;;;;;;47.10;24.70;;;;;;;-3.14;78.90;99219.10;230450;1193;142377;-71
2021/12/08 23:25:07;;;;;;;;;;;;;;;-3.04;79.19;99204.80;230196;1193;142589;-69
2021/12/08 23:30:11;;;;;;;52.90;22.50;;;;;;;-3.02;79.08;99198.40;229187;1193;125903;-67
2021/12/08 23:35:26;;;;;;;54.00;26.40;;;;;;;-3.01;79.14;99203.53;229011;1193;141709;-66
2021/12/08 23:40:30;;;;;;;48.70;21.60;;;;;;;-2.91;79.35;99198.98;229701;1193;164589;-67
2021/12/08 23:45:35;;;;;;;42.80;20.10;;;;;;;-2.85;79.20;99191.88;229401;1193;141261;-65
2021/12/08 23:50:39;;;;;;;55.20;25.20;;;;;;;-2.83;79.36;99187.69;228860;1193;140807;-67